sensor_id;sensor_type;location;lat;lon;timestamp;P1;durP1;ratioP1;P2;durP2;ratioP2
77415;SDS011;66489;49.230;8.520;2022-12-29T12:59:33;13.80;;;9.90;;
77415;SDS011;66489;49.230;8.520;2022-12-29T13:04:55;14.90;;;10.20;;
77415;SDS011;66489;49.230;8.520;2022-12-29T13:10:00;16.35;;;10.48;;
77415;SDS011;66489;49.230;8.520;2022-12-29T13:12:38;14.52;;;10.45;;
77415;SDS011;66489;49.230;8.520;2022-12-29T13:17:56;17.17;;;10.10;;
77415;SDS011;66489;49.230;8.520;2022-12-29T13:20:29;15.13;;;10.00;;
77415;SDS011;66489;49.230;8.520;2022-12-29T13:28:16;15.15;;;10.32;;
77415;SDS011;66489;49.230;8.520;2022-12-29T13:30:48;16.00;;;10.45;;
77415;SDS011;66489;49.230;8.520;2022-12-29T13:33:29;14.25;;;9.70;;
77415;SDS011;66489;49.230;8.520;2022-12-29T13:36:00;14.23;;;9.93;;
77415;SDS011;66489;49.230;8.520;2022-12-29T13:41:01;14.73;;;9.77;;
77415;SDS011;66489;49.230;8.520;2022-12-29T13:43:31;15.23;;;10.30;;
77415;SDS011;66489;49.230;8.520;2022-12-29T13:46:01;14.45;;;9.77;;
77415;SDS011;66489;49.230;8.520;2022-12-29T13:48:40;15.73;;;11.25;;
77415;SDS011;66489;49.230;8.520;2022-12-29T13:51:10;15.35;;;9.98;;
77415;SDS011;66489;49.230;8.520;2022-12-29T13:53:53;13.75;;;9.88;;
77415;SDS011;66489;49.230;8.520;2022-12-29T13:56:26;13.65;;;9.98;;
77415;SDS011;66489;49.230;8.520;2022-12-29T14:01:34;13.85;;;9.88;;
77415;SDS011;66489;49.230;8.520;2022-12-29T14:04:03;13.98;;;10.20;;
77415;SDS011;66489;49.230;8.520;2022-12-29T14:06:36;15.13;;;10.20;;
77415;SDS011;66489;49.230;8.520;2022-12-29T14:09:28;16.48;;;10.35;;
77415;SDS011;66489;49.230;8.520;2022-12-29T14:12:00;15.00;;;10.48;;
77415;SDS011;66489;49.230;8.520;2022-12-29T14:14:28;14.23;;;10.00;;
77415;SDS011;66489;49.230;8.520;2022-12-29T14:17:08;15.27;;;9.82;;
77415;SDS011;66489;49.230;8.520;2022-12-29T14:19:41;14.85;;;10.30;;
77415;SDS011;66489;49.230;8.520;2022-12-29T14:24:43;14.52;;;10.07;;
77415;SDS011;66489;49.230;8.520;2022-12-29T14:42:40;15.05;;;10.88;;
77415;SDS011;66489;49.230;8.520;2022-12-29T14:47:43;15.85;;;10.55;;
77415;SDS011;66489;49.230;8.520;2022-12-29T14:52:46;15.63;;;11.15;;
77415;SDS011;66489;49.230;8.520;2022-12-29T14:57:44;14.00;;;9.88;;
77415;SDS011;66489;49.230;8.520;2022-12-29T15:02:44;16.38;;;11.32;;
77415;SDS011;66489;49.230;8.520;2022-12-29T15:08:02;13.95;;;10.18;;
77415;SDS011;66489;49.230;8.520;2022-12-29T15:10:41;14.93;;;10.60;;
77415;SDS011;66489;49.230;8.520;2022-12-29T15:13:14;17.48;;;13.15;;
77415;SDS011;66489;49.230;8.520;2022-12-29T15:15:42;19.40;;;14.15;;
77415;SDS011;66489;49.230;8.520;2022-12-29T15:18:14;16.95;;;11.32;;
77415;SDS011;66489;49.230;8.520;2022-12-29T15:20:41;15.38;;;11.10;;
77415;SDS011;66489;49.230;8.520;2022-12-29T15:23:10;20.50;;;13.15;;
77415;SDS011;66489;49.230;8.520;2022-12-29T15:25:45;18.27;;;12.20;;
77415;SDS011;66489;49.230;8.520;2022-12-29T15:28:13;15.75;;;11.23;;
77415;SDS011;66489;49.230;8.520;2022-12-29T15:30:54;18.73;;;11.48;;
77415;SDS011;66489;49.230;8.520;2022-12-29T15:33:22;16.85;;;11.43;;
77415;SDS011;66489;49.230;8.520;2022-12-29T15:35:50;17.15;;;11.48;;
77415;SDS011;66489;49.230;8.520;2022-12-29T15:38:25;17.20;;;11.95;;
77415;SDS011;66489;49.230;8.520;2022-12-29T15:41:05;17.17;;;11.02;;
77415;SDS011;66489;49.230;8.520;2022-12-29T15:46:20;16.73;;;11.38;;
77415;SDS011;66489;49.230;8.520;2022-12-29T15:48:47;15.23;;;11.07;;
77415;SDS011;66489;49.230;8.520;2022-12-29T15:51:16;16.38;;;11.20;;
77415;SDS011;66489;49.230;8.520;2022-12-29T15:53:48;16.17;;;11.35;;
77415;SDS011;66489;49.230;8.520;2022-12-29T15:56:17;16.98;;;11.25;;
77415;SDS011;66489;49.230;8.520;2022-12-29T15:58:45;16.00;;;11.50;;
77415;SDS011;66489;49.230;8.520;2022-12-29T16:03:45;16.63;;;10.90;;
77415;SDS011;66489;49.230;8.520;2022-12-29T16:06:27;15.38;;;10.77;;
77415;SDS011;66489;49.230;8.520;2022-12-29T16:08:58;15.80;;;10.18;;
77415;SDS011;66489;49.230;8.520;2022-12-29T16:11:27;14.15;;;10.30;;
77415;SDS011;66489;49.230;8.520;2022-12-29T16:13:56;14.43;;;9.82;;
77415;SDS011;66489;49.230;8.520;2022-12-29T16:18:57;13.80;;;9.57;;
77415;SDS011;66489;49.230;8.520;2022-12-29T16:23:52;16.73;;;10.38;;
77415;SDS011;66489;49.230;8.520;2022-12-29T16:26:20;16.17;;;10.48;;
77415;SDS011;66489;49.230;8.520;2022-12-29T16:28:59;15.40;;;10.68;;
77415;SDS011;66489;49.230;8.520;2022-12-29T16:31:34;17.10;;;11.23;;
77415;SDS011;66489;49.230;8.520;2022-12-29T16:39:25;16.30;;;10.90;;
77415;SDS011;66489;49.230;8.520;2022-12-29T16:41:54;15.57;;;10.60;;
77415;SDS011;66489;49.230;8.520;2022-12-29T16:44:26;14.80;;;10.20;;
77415;SDS011;66489;49.230;8.520;2022-12-29T16:47:05;14.60;;;10.18;;
77415;SDS011;66489;49.230;8.520;2022-12-29T16:49:46;17.00;;;11.20;;
77415;SDS011;66489;49.230;8.520;2022-12-29T16:52:23;17.80;;;10.15;;
77415;SDS011;66489;49.230;8.520;2022-12-29T16:54:53;16.20;;;10.85;;
77415;SDS011;66489;49.230;8.520;2022-12-29T16:57:25;16.92;;;11.02;;
77415;SDS011;66489;49.230;8.520;2022-12-29T16:59:53;15.43;;;10.40;;
77415;SDS011;66489;49.230;8.520;2022-12-29T17:02:23;14.93;;;10.20;;
77415;SDS011;66489;49.230;8.520;2022-12-29T17:04:51;16.60;;;11.38;;
77415;SDS011;66489;49.230;8.520;2022-12-29T17:07:23;16.73;;;11.30;;
77415;SDS011;66489;49.230;8.520;2022-12-29T17:09:50;17.10;;;10.88;;
77415;SDS011;66489;49.230;8.520;2022-12-29T17:12:20;17.15;;;11.55;;
77415;SDS011;66489;49.230;8.520;2022-12-29T17:17:43;17.95;;;11.60;;
77415;SDS011;66489;49.230;8.520;2022-12-29T17:22:33;19.23;;;12.43;;
77415;SDS011;66489;49.230;8.520;2022-12-29T17:25:02;17.88;;;11.43;;
77415;SDS011;66489;49.230;8.520;2022-12-29T17:32:39;19.85;;;13.00;;
77415;SDS011;66489;49.230;8.520;2022-12-29T17:35:13;16.27;;;11.13;;
77415;SDS011;66489;49.230;8.520;2022-12-29T17:37:43;16.17;;;10.88;;
77415;SDS011;66489;49.230;8.520;2022-12-29T17:40:30;16.20;;;10.82;;
77415;SDS011;66489;49.230;8.520;2022-12-29T17:42:58;16.30;;;11.38;;
77415;SDS011;66489;49.230;8.520;2022-12-29T17:47:53;20.95;;;12.60;;
77415;SDS011;66489;49.230;8.520;2022-12-29T20:23:43;5.20;;;2.55;;
77415;SDS011;66489;49.230;8.520;2022-12-29T20:26:12;7.50;;;2.60;;
77415;SDS011;66489;49.230;8.520;2022-12-29T20:28:39;6.18;;;2.75;;
77415;SDS011;66489;49.230;8.520;2022-12-29T20:31:12;7.10;;;2.50;;
77415;SDS011;66489;49.230;8.520;2022-12-29T20:33:40;4.95;;;2.20;;
77415;SDS011;66489;49.230;8.520;2022-12-29T20:36:09;4.25;;;1.88;;
77415;SDS011;66489;49.230;8.520;2022-12-29T20:38:37;6.35;;;2.30;;
77415;SDS011;66489;49.230;8.520;2022-12-29T20:41:04;5.57;;;2.05;;
77415;SDS011;66489;49.230;8.520;2022-12-29T20:43:32;4.18;;;1.80;;
77415;SDS011;66489;49.230;8.520;2022-12-29T20:45:59;5.13;;;1.70;;
77415;SDS011;66489;49.230;8.520;2022-12-29T20:48:28;6.72;;;2.03;;
77415;SDS011;66489;49.230;8.520;2022-12-29T20:50:56;6.47;;;1.88;;
77415;SDS011;66489;49.230;8.520;2022-12-29T20:53:32;6.78;;;2.15;;
77415;SDS011;66489;49.230;8.520;2022-12-29T20:56:03;4.68;;;1.95;;
77415;SDS011;66489;49.230;8.520;2022-12-29T20:58:31;4.38;;;1.63;;
77415;SDS011;66489;49.230;8.520;2022-12-29T21:01:14;5.80;;;1.98;;
77415;SDS011;66489;49.230;8.520;2022-12-29T21:03:42;8.38;;;1.77;;
77415;SDS011;66489;49.230;8.520;2022-12-29T21:06:10;4.45;;;1.85;;
77415;SDS011;66489;49.230;8.520;2022-12-29T21:08:38;6.43;;;2.10;;
77415;SDS011;66489;49.230;8.520;2022-12-29T21:11:05;4.97;;;2.10;;
77415;SDS011;66489;49.230;8.520;2022-12-29T21:13:33;5.97;;;2.33;;
77415;SDS011;66489;49.230;8.520;2022-12-29T21:16:01;4.78;;;1.90;;
77415;SDS011;66489;49.230;8.520;2022-12-29T21:18:29;4.63;;;2.30;;
77415;SDS011;66489;49.230;8.520;2022-12-29T21:21:01;6.38;;;2.15;;
77415;SDS011;66489;49.230;8.520;2022-12-29T21:23:28;4.82;;;1.90;;
77415;SDS011;66489;49.230;8.520;2022-12-29T21:25:56;3.75;;;1.75;;
77415;SDS011;66489;49.230;8.520;2022-12-29T21:28:25;6.30;;;1.80;;
77415;SDS011;66489;49.230;8.520;2022-12-29T21:30:52;5.30;;;1.77;;
77415;SDS011;66489;49.230;8.520;2022-12-29T21:33:20;4.63;;;1.50;;
77415;SDS011;66489;49.230;8.520;2022-12-29T21:35:47;4.20;;;1.85;;
77415;SDS011;66489;49.230;8.520;2022-12-29T21:38:14;5.53;;;1.83;;
77415;SDS011;66489;49.230;8.520;2022-12-29T21:40:41;4.75;;;1.48;;
77415;SDS011;66489;49.230;8.520;2022-12-29T21:43:09;6.40;;;1.70;;
77415;SDS011;66489;49.230;8.520;2022-12-29T21:45:36;4.43;;;1.60;;
77415;SDS011;66489;49.230;8.520;2022-12-29T21:48:04;3.95;;;1.42;;
77415;SDS011;66489;49.230;8.520;2022-12-29T21:50:51;5.22;;;1.67;;
77415;SDS011;66489;49.230;8.520;2022-12-29T21:53:38;3.58;;;1.30;;
77415;SDS011;66489;49.230;8.520;2022-12-29T21:58:34;5.57;;;1.90;;
77415;SDS011;66489;49.230;8.520;2022-12-29T22:01:20;3.90;;;1.65;;
77415;SDS011;66489;49.230;8.520;2022-12-29T22:04:07;6.55;;;2.22;;
77415;SDS011;66489;49.230;8.520;2022-12-29T22:06:55;7.55;;;2.05;;
77415;SDS011;66489;49.230;8.520;2022-12-29T22:09:41;8.18;;;2.28;;
77415;SDS011;66489;49.230;8.520;2022-12-29T22:12:30;7.80;;;2.25;;
77415;SDS011;66489;49.230;8.520;2022-12-29T22:15:17;4.57;;;2.10;;
77415;SDS011;66489;49.230;8.520;2022-12-29T22:17:47;5.93;;;1.90;;
77415;SDS011;66489;49.230;8.520;2022-12-29T22:20:16;3.25;;;1.40;;
77415;SDS011;66489;49.230;8.520;2022-12-29T22:22:43;6.57;;;2.22;;
77415;SDS011;66489;49.230;8.520;2022-12-29T22:25:10;7.30;;;3.28;;
77415;SDS011;66489;49.230;8.520;2022-12-29T22:27:38;6.20;;;2.45;;
77415;SDS011;66489;49.230;8.520;2022-12-29T22:30:05;6.78;;;2.50;;
77415;SDS011;66489;49.230;8.520;2022-12-29T22:32:33;5.47;;;2.38;;
77415;SDS011;66489;49.230;8.520;2022-12-29T22:35:01;8.23;;;3.05;;
77415;SDS011;66489;49.230;8.520;2022-12-29T22:37:33;7.93;;;2.90;;
77415;SDS011;66489;49.230;8.520;2022-12-29T22:40:01;5.55;;;2.40;;
77415;SDS011;66489;49.230;8.520;2022-12-29T22:42:29;8.20;;;2.67;;
77415;SDS011;66489;49.230;8.520;2022-12-29T22:44:56;6.78;;;2.45;;
77415;SDS011;66489;49.230;8.520;2022-12-29T22:47:24;10.90;;;2.70;;
77415;SDS011;66489;49.230;8.520;2022-12-29T22:49:51;8.00;;;2.50;;
77415;SDS011;66489;49.230;8.520;2022-12-29T22:52:18;7.35;;;2.38;;
77415;SDS011;66489;49.230;8.520;2022-12-29T22:54:45;7.28;;;2.55;;
77415;SDS011;66489;49.230;8.520;2022-12-29T22:57:12;8.63;;;2.75;;
77415;SDS011;66489;49.230;8.520;2022-12-29T22:59:40;6.68;;;2.83;;
77415;SDS011;66489;49.230;8.520;2022-12-29T23:02:07;6.32;;;1.90;;
77415;SDS011;66489;49.230;8.520;2022-12-29T23:04:34;7.05;;;1.80;;
77415;SDS011;66489;49.230;8.520;2022-12-29T23:07:22;5.05;;;1.98;;
77415;SDS011;66489;49.230;8.520;2022-12-29T23:09:49;4.55;;;1.60;;
77415;SDS011;66489;49.230;8.520;2022-12-29T23:12:17;3.83;;;1.50;;
77415;SDS011;66489;49.230;8.520;2022-12-29T23:14:44;6.15;;;1.98;;
77415;SDS011;66489;49.230;8.520;2022-12-29T23:17:11;7.97;;;1.65;;
77415;SDS011;66489;49.230;8.520;2022-12-29T23:19:38;4.70;;;1.60;;
77415;SDS011;66489;49.230;8.520;2022-12-29T23:22:05;2.95;;;1.38;;
77415;SDS011;66489;49.230;8.520;2022-12-29T23:24:32;3.85;;;1.40;;
77415;SDS011;66489;49.230;8.520;2022-12-29T23:27:00;4.07;;;1.58;;
77415;SDS011;66489;49.230;8.520;2022-12-29T23:29:27;3.85;;;1.40;;
77415;SDS011;66489;49.230;8.520;2022-12-29T23:31:54;4.90;;;1.67;;
77415;SDS011;66489;49.230;8.520;2022-12-29T23:34:21;4.22;;;1.58;;
77415;SDS011;66489;49.230;8.520;2022-12-29T23:36:49;4.75;;;1.40;;
77415;SDS011;66489;49.230;8.520;2022-12-29T23:39:17;5.30;;;1.42;;
77415;SDS011;66489;49.230;8.520;2022-12-29T23:41:45;3.45;;;1.50;;
77415;SDS011;66489;49.230;8.520;2022-12-29T23:44:12;4.68;;;1.58;;
77415;SDS011;66489;49.230;8.520;2022-12-29T23:46:39;5.18;;;1.40;;
77415;SDS011;66489;49.230;8.520;2022-12-29T23:49:07;4.93;;;1.40;;
77415;SDS011;66489;49.230;8.520;2022-12-29T23:51:35;4.75;;;1.48;;
77415;SDS011;66489;49.230;8.520;2022-12-29T23:54:02;5.15;;;1.50;;
77415;SDS011;66489;49.230;8.520;2022-12-29T23:56:30;5.18;;;1.38;;
77415;SDS011;66489;49.230;8.520;2022-12-29T23:58:57;7.05;;;1.50;;
